Time;durP1;ratioP1;P1;durP2;ratioP2;P2;SDS_P1;SDS_P2;PMS_P1;PMS_P2;Temp;Humidity;BMP_temperature;BMP_pressure;BME280_temperature;BME280_humidity;BME280_pressure;Samples;Min_cycle;Max_cycle;Signal;HPM_P1;HPM_P2
2022/03/03 00:00:51;;;;;;;115.40;48.03;;;-0.50;99.90;;;;;;5136412;27;20618;-86
2022/03/03 00:03:18;;;;;;;105.50;46.20;;;-0.40;99.90;;;;;;5136209;27;20215;-87
2022/03/03 00:05:46;;;;;;;93.93;40.33;;;-0.30;99.90;;;;;;5136254;27;20185;-87
2022/03/03 00:08:14;;;;;;;90.37;40.87;;;-0.20;99.90;;;;;;5135604;27;20742;-87
2022/03/03 00:10:41;;;;;;;95.60;40.50;;;-0.10;99.90;;;;;;5135868;27;20258;-87
2022/03/03 00:13:08;;;;;;;89.93;40.73;;;-0.10;99.90;;;;;;5135761;27;20235;-87
2022/03/03 00:15:35;;;;;;;89.20;41.03;;;0.00;99.90;;;;;;5136270;27;20197;-87
2022/03/03 00:18:02;;;;;;;91.97;40.20;;;0.00;99.90;;;;;;5136063;27;20217;-87
2022/03/03 00:20:29;;;;;;;88.47;39.97;;;0.00;99.90;;;;;;5135719;27;20638;-87
2022/03/03 00:23:01;;;;;;;89.13;40.80;;;0.00;99.90;;;;;;5136203;27;20182;-87
2022/03/03 00:25:28;;;;;;;86.63;39.73;;;0.00;99.90;;;;;;5135080;27;20610;-87
2022/03/03 00:27:55;;;;;;;82.00;39.40;;;0.00;99.90;;;;;;5136242;27;20194;-87
2022/03/03 00:30:22;;;;;;;83.70;38.23;;;0.00;99.90;;;;;;5135509;27;20230;-87
2022/03/03 00:32:49;;;;;;;86.37;39.63;;;0.00;99.90;;;;;;5135402;27;20688;-86
2022/03/03 00:35:15;;;;;;;70.77;29.67;;;-0.10;99.90;;;;;;5135140;27;20646;-87
2022/03/03 00:37:42;;;;;;;71.50;33.37;;;-0.10;99.90;;;;;;5135832;27;20565;-87
2022/03/03 00:40:12;;;;;;;62.87;26.97;;;-0.20;99.90;;;;;;5135226;27;20514;-87
2022/03/03 00:42:39;;;;;;;65.43;31.77;;;-0.20;99.90;;;;;;5135556;27;20196;-87
2022/03/03 00:45:08;;;;;;;84.20;50.53;;;-0.30;99.90;;;;;;5135509;27;20213;-87
2022/03/03 00:47:35;;;;;;;55.27;23.33;;;-0.40;99.90;;;;;;5135493;27;20225;-86
2022/03/03 00:50:02;;;;;;;61.40;30.30;;;-0.50;99.90;;;;;;5135406;27;20194;-87
2022/03/03 00:52:29;;;;;;;98.20;59.37;;;-0.50;99.90;;;;;;5135258;27;20217;-86
2022/03/03 00:54:56;;;;;;;100.50;66.77;;;-0.50;99.90;;;;;;5135627;27;20182;-87
2022/03/03 00:57:24;;;;;;;164.00;120.67;;;-0.60;99.90;;;;;;5135276;27;20193;-87
2022/03/03 00:59:51;;;;;;;165.40;110.20;;;-0.60;99.90;;;;;;5135534;27;20194;-86
2022/03/03 01:02:18;;;;;;;272.70;121.63;;;-0.70;99.90;;;;;;5134872;27;20182;-87
2022/03/03 01:04:45;;;;;;;188.80;125.40;;;-0.80;99.90;;;;;;5134983;27;20243;-86
2022/03/03 01:07:12;;;;;;;180.17;110.93;;;-0.80;99.90;;;;;;5135025;27;20213;-86
2022/03/03 01:09:39;;;;;;;187.67;112.83;;;-0.90;99.90;;;;;;5135133;27;20313;-87
2022/03/03 01:12:07;;;;;;;166.70;102.80;;;-1.00;99.90;;;;;;5134764;27;20725;-86
2022/03/03 01:14:35;;;;;;;91.40;60.70;;;-1.00;99.90;;;;;;5134988;27;20206;-86
2022/03/03 01:17:03;;;;;;;62.37;36.80;;;-1.00;99.90;;;;;;5134958;27;20242;-87
2022/03/03 01:19:30;;;;;;;66.00;33.97;;;-1.10;99.90;;;;;;5134639;27;20698;-86
2022/03/03 01:21:57;;;;;;;61.97;23.10;;;-1.10;99.90;;;;;;5134725;27;20196;-86
2022/03/03 01:24:24;;;;;;;108.43;79.13;;;-1.10;99.90;;;;;;5134784;27;20192;-86
2022/03/03 01:26:51;;;;;;;104.50;72.60;;;-1.10;99.90;;;;;;5134427;27;20234;-86
2022/03/03 01:29:18;;;;;;;73.13;42.67;;;-1.00;99.90;;;;;;5134612;27;20182;-86
2022/03/03 01:31:46;;;;;;;59.33;24.03;;;-1.00;99.90;;;;;;5134666;27;20590;-86
2022/03/03 01:34:13;;;;;;;55.93;22.37;;;-1.00;99.90;;;;;;5134297;27;20234;-86
2022/03/03 01:36:40;;;;;;;45.37;18.97;;;-1.00;99.90;;;;;;5134097;27;20186;-86
2022/03/03 01:39:07;;;;;;;41.90;19.23;;;-1.10;99.90;;;;;;5134594;27;20246;-86
2022/03/03 01:41:35;;;;;;;45.50;20.03;;;-1.10;99.90;;;;;;5134384;27;20194;-86
2022/03/03 01:44:02;;;;;;;45.77;19.80;;;-1.10;99.90;;;;;;5134390;27;20182;-86
2022/03/03 01:46:29;;;;;;;46.10;19.93;;;-1.20;99.90;;;;;;5134369;27;20614;-86
2022/03/03 01:48:58;;;;;;;77.43;39.13;;;-1.20;99.90;;;;;;5134581;27;20542;-87
2022/03/03 01:51:25;;;;;;;342.43;141.83;;;-1.30;99.90;;;;;;5134448;27;20254;-86
2022/03/03 01:53:52;;;;;;;335.33;147.57;;;-1.30;99.90;;;;;;5134008;27;20205;-86
2022/03/03 01:56:19;;;;;;;70.90;40.33;;;-1.30;99.90;;;;;;5134147;27;20186;-86
2022/03/03 01:58:46;;;;;;;81.20;43.37;;;-1.40;99.90;;;;;;5134099;27;20234;-87
2022/03/03 02:01:15;;;;;;;137.40;80.17;;;-1.40;99.90;;;;;;5133718;27;20231;-86
2022/03/03 02:03:42;;;;;;;47.00;19.50;;;-1.40;99.90;;;;;;5133564;27;20247;-86
2022/03/03 02:06:10;;;;;;;465.17;159.60;;;-1.50;99.90;;;;;;5133768;27;20241;-86
2022/03/03 02:08:37;;;;;;;395.77;144.87;;;-1.60;99.90;;;;;;5133483;27;20259;-85
2022/03/03 02:11:04;;;;;;;422.27;159.87;;;-1.60;99.90;;;;;;5133896;27;20201;-85
2022/03/03 02:13:32;;;;;;;257.73;130.00;;;-1.70;99.90;;;;;;5133498;27;20178;-86
2022/03/03 02:15:59;;;;;;;154.80;101.77;;;-1.80;99.90;;;;;;5134248;27;20186;-86
2022/03/03 02:18:26;;;;;;;61.67;36.07;;;-1.80;99.90;;;;;;5133471;27;20582;-86
2022/03/03 02:20:54;;;;;;;152.47;112.63;;;-1.90;99.90;;;;;;5133806;27;20194;-86
2022/03/03 02:23:21;;;;;;;91.20;61.67;;;-1.90;99.90;;;;;;5133601;27;20238;-86
2022/03/03 02:25:48;;;;;;;113.30;73.80;;;-2.00;99.90;;;;;;5133733;27;20193;-86
2022/03/03 02:28:15;;;;;;;102.30;76.93;;;-2.00;99.90;;;;;;5133743;27;20186;-86
2022/03/03 02:30:42;;;;;;;84.57;57.60;;;-2.00;99.90;;;;;;5133304;27;20185;-86
2022/03/03 02:33:09;;;;;;;87.63;57.50;;;-2.10;99.90;;;;;;5133505;27;20263;-86
2022/03/03 02:35:37;;;;;;;75.27;46.23;;;-2.10;99.90;;;;;;5133385;28;20241;-86
2022/03/03 02:38:06;;;;;;;81.23;39.17;;;-2.10;99.90;;;;;;5133604;27;20198;-86
2022/03/03 02:40:33;;;;;;;76.53;41.40;;;-2.10;99.90;;;;;;5133465;27;20181;-86
2022/03/03 02:43:00;;;;;;;101.17;79.60;;;-2.10;99.90;;;;;;5133589;28;20625;-86
2022/03/03 02:45:27;;;;;;;163.23;110.90;;;-2.20;99.90;;;;;;5132870;28;20629;-86
2022/03/03 02:47:54;;;;;;;181.43;107.53;;;-2.20;99.90;;;;;;5133800;27;20582;-86
2022/03/03 02:50:23;;;;;;;187.70;107.60;;;-2.10;99.90;;;;;;5137882;27;20573;-86
2022/03/03 02:52:50;;;;;;;246.80;108.90;;;-2.10;99.90;;;;;;5137633;27;20244;-86
2022/03/03 02:55:20;;;;;;;171.27;101.47;;;-2.10;99.90;;;;;;5137573;27;20238;-86
2022/03/03 02:57:56;;;;;;;136.97;80.37;;;-2.00;99.90;;;;;;5137768;27;20181;-86
2022/03/03 03:00:26;;;;;;;173.33;102.07;;;-2.00;99.90;;;;;;5137725;27;20218;-85
2022/03/03 03:02:53;;;;;;;181.50;101.87;;;-2.00;99.90;;;;;;5137207;27;20250;-85
2022/03/03 03:05:20;;;;;;;166.23;97.40;;;-2.00;99.90;;;;;;5137244;27;20242;-86
2022/03/03 03:07:47;;;;;;;121.93;67.17;;;-2.00;99.90;;;;;;5137390;27;20266;-86
2022/03/03 03:10:15;;;;;;;100.60;51.70;;;-2.00;99.90;;;;;;5137323;27;20537;-86
2022/03/03 03:12:43;;;;;;;156.03;74.93;;;-2.00;99.90;;;;;;5137051;27;20202;-85
2022/03/03 03:15:11;;;;;;;83.37;41.50;;;-2.00;99.90;;;;;;5137324;27;20185;-86
2022/03/03 03:17:38;;;;;;;82.70;42.47;;;-2.00;1.00;;;;;;5137193;27;20190;-86
2022/03/03 03:20:07;;;;;;;82.10;43.27;;;-2.00;1.00;;;;;;5136740;27;20585;-86
2022/03/03 03:22:35;;;;;;;109.27;59.13;;;-2.00;1.00;;;;;;5137011;27;20213;-85
2022/03/03 03:25:02;;;;;;;75.30;39.00;;;-1.90;1.00;;;;;;5136755;27;20630;-85
2022/03/03 03:27:29;;;;;;;81.63;45.40;;;-1.90;1.00;;;;;;5136700;27;20238;-86
2022/03/03 03:29:58;;;;;;;80.70;41.13;;;-1.90;1.00;;;;;;5137242;27;20189;-86
2022/03/03 03:32:25;;;;;;;90.60;47.17;;;-1.90;1.00;;;;;;5136809;27;20209;-85
2022/03/03 03:34:52;;;;;;;417.80;150.93;;;-2.00;1.00;;;;;;5136930;27;20177;-86
2022/03/03 03:37:19;;;;;;;394.50;131.80;;;-1.90;1.00;;;;;;5136845;27;20239;-86
2022/03/03 03:39:46;;;;;;;409.33;130.57;;;-2.00;1.00;;;;;;5136545;27;20533;-86
2022/03/03 03:42:13;;;;;;;431.30;140.63;;;-2.00;1.00;;;;;;5136803;27;20520;-86
2022/03/03 03:44:40;;;;;;;434.30;151.87;;;-1.90;1.00;;;;;;5136701;27;20182;-85
2022/03/03 03:47:09;;;;;;;440.00;145.97;;;-2.00;1.00;;;;;;5136985;27;20244;-86
2022/03/03 03:49:36;;;;;;;436.10;142.50;;;-2.00;1.00;;;;;;5136965;27;20272;-86
2022/03/03 03:52:04;;;;;;;421.97;144.27;;;-2.20;1.00;;;;;;5136402;27;20266;-85
2022/03/03 03:54:31;;;;;;;414.20;138.97;;;-2.20;1.00;;;;;;5136653;27;20186;-86
2022/03/03 03:56:58;;;;;;;396.23;149.17;;;-2.30;1.00;;;;;;5136154;27;20718;-85
2022/03/03 03:59:25;;;;;;;441.67;140.30;;;-2.30;1.00;;;;;;5136339;27;20185;-86
2022/03/03 04:01:52;;;;;;;433.30;141.23;;;-2.30;1.00;;;;;;5136210;27;20234;-86
2022/03/03 04:04:20;;;;;;;461.00;152.87;;;-2.20;1.00;;;;;;5136026;27;20519;-85
2022/03/03 04:06:47;;;;;;;467.80;149.27;;;-2.10;1.00;;;;;;5136062;27;20257;-86
2022/03/03 04:09:14;;;;;;;460.93;142.53;;;-1.90;1.00;;;;;;5136161;27;20178;-86
2022/03/03 04:11:41;;;;;;;388.47;139.47;;;-1.80;1.00;;;;;;5135987;27;20234;-86
2022/03/03 04:14:08;;;;;;;358.70;138.70;;;-1.80;1.00;;;;;;5136035;27;20259;-86
2022/03/03 04:16:35;;;;;;;81.20;47.70;;;-1.70;1.00;;;;;;5135723;27;20634;-86
2022/03/03 04:19:03;;;;;;;76.97;31.60;;;-1.60;1.00;;;;;;5135979;27;20276;-85
2022/03/03 04:21:32;;;;;;;105.07;93.70;;;-1.50;1.00;;;;;;5135672;27;20186;-86
2022/03/03 04:23:59;;;;;;;79.30;31.30;;;-1.40;1.00;;;;;;5135440;27;20221;-86
2022/03/03 04:26:26;;;;;;;78.77;29.70;;;-1.20;1.00;;;;;;5136081;27;20229;-85
2022/03/03 04:28:53;;;;;;;122.03;82.37;;;-1.20;1.00;;;;;;5135946;27;20189;-86
2022/03/03 04:31:20;;;;;;;94.50;36.37;;;-1.10;22.80;;;;;;5134434;27;20234;-86
2022/03/03 04:33:47;;;;;;;94.83;37.97;;;-1.00;99.90;;;;;;5135748;27;20217;-85
2022/03/03 04:36:15;;;;;;;87.43;35.40;;;-0.90;99.90;;;;;;5135429;27;20242;-86
2022/03/03 04:38:45;;;;;;;91.50;39.27;;;-0.80;99.90;;;;;;5135981;27;20194;-85
2022/03/03 04:41:12;;;;;;;101.73;40.00;;;-0.70;99.90;;;;;;5135534;27;20182;-85
2022/03/03 04:43:39;;;;;;;105.83;42.27;;;-0.70;99.90;;;;;;5135996;27;20508;-85
2022/03/03 04:46:06;;;;;;;103.77;40.97;;;-0.60;1.00;;;;;;5135444;27;20182;-85
2022/03/03 04:48:33;;;;;;;107.03;41.77;;;-0.60;99.90;;;;;;5135150;27;20190;-85
2022/03/03 04:51:00;;;;;;;101.07;38.47;;;-0.50;1.00;;;;;;5135495;27;20186;-86
2022/03/03 04:53:28;;;;;;;108.03;41.77;;;-0.50;1.00;;;;;;5135304;27;20270;-85
2022/03/03 04:55:58;;;;;;;102.20;38.07;;;-0.50;1.00;;;;;;5135422;27;20193;-86
2022/03/03 04:58:26;;;;;;;107.57;56.33;;;-0.40;1.00;;;;;;5135141;27;20686;-86
2022/03/03 05:00:53;;;;;;;75.03;29.70;;;-0.40;1.00;;;;;;5134805;27;20174;-86
2022/03/03 05:03:20;;;;;;;87.07;31.30;;;-0.40;1.00;;;;;;5134769;27;20186;-85
2022/03/03 05:05:47;;;;;;;127.63;93.13;;;-0.30;1.00;;;;;;5135214;27;20235;-85
2022/03/03 05:08:14;;;;;;;83.27;33.13;;;-0.30;1.00;;;;;;5135091;27;20213;-86
2022/03/03 05:10:41;;;;;;;111.30;44.77;;;-0.30;1.00;;;;;;5134981;27;20583;-86
2022/03/03 05:13:09;;;;;;;99.23;39.93;;;-0.20;99.90;;;;;;5135234;27;20605;-86
2022/03/03 05:15:36;;;;;;;106.20;37.30;;;-0.20;1.00;;;;;;5135187;27;20213;-86
2022/03/03 05:18:03;;;;;;;98.37;36.03;;;-0.20;1.00;;;;;;5134516;27;20194;-85
2022/03/03 05:20:30;;;;;;;97.50;37.83;;;-0.20;1.00;;;;;;5134865;27;20189;-85
2022/03/03 05:22:57;;;;;;;101.50;37.93;;;-0.20;1.00;;;;;;5134619;27;20708;-86
2022/03/03 05:25:25;;;;;;;102.73;37.03;;;-0.20;1.00;;;;;;5134791;27;20247;-86
2022/03/03 05:27:52;;;;;;;98.07;36.13;;;-0.20;1.00;;;;;;5134669;27;20190;-85
2022/03/03 05:30:20;;;;;;;98.70;36.07;;;-0.10;1.00;;;;;;5134482;27;20234;-85
2022/03/03 05:32:49;;;;;;;96.40;34.57;;;-0.10;1.00;;;;;;5134584;27;20206;-85
2022/03/03 05:35:18;;;;;;;107.80;39.67;;;-0.10;1.00;;;;;;5134495;27;20200;-86
2022/03/03 05:37:46;;;;;;;134.30;46.17;;;0.00;1.00;;;;;;5134889;27;20239;-85
2022/03/03 05:40:22;;;;;;;125.07;50.20;;;0.00;1.00;;;;;;5139322;27;20186;-88
2022/03/03 05:42:49;;;;;;;159.73;59.37;;;-0.10;1.00;;;;;;5134404;27;20177;-84
2022/03/03 05:45:16;;;;;;;127.43;44.60;;;0.00;1.00;;;;;;5134036;27;20652;-84
2022/03/03 05:48:02;;;;;;;108.63;39.97;;;0.00;1.00;;;;;;5151481;27;20174;-87
2022/03/03 05:50:40;;;;;;;102.37;42.10;;;0.00;1.00;;;;;;5144851;27;20182;-86
2022/03/03 05:53:07;;;;;;;126.53;49.23;;;0.10;1.00;;;;;;5155078;27;20213;-84
2022/03/03 05:55:39;;;;;;;87.77;31.90;;;0.10;1.00;;;;;;5133865;27;20194;-84
2022/03/03 05:58:10;;;;;;;87.67;28.53;;;0.10;1.00;;;;;;5134255;27;20174;-84
2022/03/03 06:00:37;;;;;;;73.97;24.97;;;0.10;1.00;;;;;;5133388;27;20595;-84
2022/03/03 06:03:08;;;;;;;87.90;31.70;;;0.10;69.00;;;;;;5134023;27;20261;-85
2022/03/03 06:05:38;;;;;;;86.70;30.33;;;0.10;1.00;;;;;;5133977;27;20185;-84
2022/03/03 06:08:17;;;;;;;94.57;29.10;;;0.10;1.00;;;;;;5134207;27;20527;-85
2022/03/03 06:10:55;;;;;;;118.60;34.20;;;0.10;99.90;;;;;;5135698;27;20268;-87
2022/03/03 06:13:28;;;;;;;283.73;179.80;;;0.10;70.50;;;;;;5138533;27;20270;-86
2022/03/03 06:15:55;;;;;;;315.17;174.80;;;0.10;99.90;;;;;;5142861;27;20203;-85
2022/03/03 06:18:27;;;;;;;67.60;22.67;;;0.00;99.90;;;;;;5144194;27;20231;-89
2022/03/03 06:20:55;;;;;;;93.83;30.53;;;0.00;99.90;;;;;;5141071;27;20571;-85
2022/03/03 06:23:22;;;;;;;105.57;35.70;;;0.10;99.90;;;;;;5138318;27;20238;-85
2022/03/03 06:25:57;;;;;;;76.93;32.10;;;0.00;99.90;;;;;;5140513;27;20189;-85
2022/03/03 06:28:24;;;;;;;93.83;33.23;;;0.00;99.90;;;;;;5137999;27;20174;-86
2022/03/03 06:30:51;;;;;;;76.63;28.83;;;0.10;99.90;;;;;;5139938;27;20564;-87
2022/03/03 06:33:25;;;;;;;87.37;31.93;;;0.10;99.90;;;;;;5138860;27;20239;-87
2022/03/03 06:35:53;;;;;;;83.20;30.37;;;0.10;99.90;;;;;;5137883;27;20175;-85
2022/03/03 06:38:20;;;;;;;86.97;31.73;;;0.10;99.90;;;;;;5138580;27;20637;-84
2022/03/03 06:40:47;;;;;;;74.93;26.77;;;0.10;1.00;;;;;;5139027;27;20185;-85
2022/03/03 06:43:16;;;;;;;117.20;91.13;;;0.10;1.00;;;;;;5137733;27;20242;-87
2022/03/03 06:45:46;;;;;;;81.27;26.60;;;0.10;1.00;;;;;;5139272;28;20246;-89
2022/03/03 06:48:16;;;;;;;88.70;27.93;;;0.10;1.00;;;;;;5140411;28;20201;-85
2022/03/03 06:50:50;;;;;;;79.53;31.53;;;0.10;1.00;;;;;;5140679;28;20274;-85
2022/03/03 06:53:21;;;;;;;310.70;279.80;;;0.20;1.00;;;;;;5140600;28;20205;-85
2022/03/03 06:55:50;;;;;;;74.37;28.37;;;0.20;1.00;;;;;;5141187;28;20178;-85
2022/03/03 06:58:20;;;;;;;68.20;24.80;;;0.20;1.00;;;;;;5141960;28;20198;-85
2022/03/03 07:00:52;;;;;;;63.93;25.40;;;0.30;1.00;;;;;;5141841;28;20182;-87
2022/03/03 07:03:22;;;;;;;67.23;23.27;;;0.30;1.00;;;;;;5142943;28;20182;-85
2022/03/03 07:05:50;;;;;;;72.43;26.13;;;0.30;1.00;;;;;;5144003;28;20257;-85
2022/03/03 07:08:19;;;;;;;69.20;29.17;;;0.30;1.00;;;;;;5149124;28;20232;-89
2022/03/03 07:10:57;;;;;;;51.30;17.93;;;0.40;1.00;;;;;;5144354;28;20208;-87
2022/03/03 07:13:35;;;;;;;57.13;22.00;;;0.50;1.00;;;;;;5145017;28;20192;-85
2022/03/03 07:16:17;;;;;;;52.33;20.70;;;0.50;1.00;;;;;;5139061;28;20190;-85
2022/03/03 07:18:51;;;;;;;117.13;72.33;;;0.50;1.00;;;;;;5137424;28;20166;-85
2022/03/03 07:21:28;;;;;;;193.97;158.23;;;0.50;1.00;;;;;;5137091;28;20243;-85
2022/03/03 07:24:04;;;;;;;58.13;19.50;;;0.60;1.00;;;;;;5140366;28;20230;-85
2022/03/03 07:26:33;;;;;;;59.83;21.07;;;0.60;1.00;;;;;;5139189;28;20209;-87
2022/03/03 07:29:04;;;;;;;66.57;21.33;;;0.60;1.00;;;;;;5138309;28;20190;-86
2022/03/03 07:31:35;;;;;;;47.03;17.60;;;0.60;1.00;;;;;;5139861;28;20190;-86
2022/03/03 07:34:06;;;;;;;51.60;21.90;;;0.60;1.00;;;;;;5138197;27;20290;-84
2022/03/03 07:36:39;;;;;;;41.53;16.13;;;0.60;1.00;;;;;;5141513;27;20190;-86
2022/03/03 07:39:11;;;;;;;118.63;106.23;;;0.60;1.00;;;;;;5140491;27;20178;-85
2022/03/03 07:41:38;;;;;;;52.93;19.33;;;0.60;1.00;;;;;;5138809;27;20220;-86
2022/03/03 07:44:06;;;;;;;47.87;18.50;;;0.70;1.00;;;;;;5142281;27;20571;-88
2022/03/03 07:46:33;;;;;;;40.13;15.77;;;0.70;1.00;;;;;;5143398;27;20190;-86
2022/03/03 07:49:02;;;;;;;52.43;17.33;;;0.70;1.00;;;;;;5137734;27;20573;-85
2022/03/03 07:51:29;;;;;;;55.73;19.10;;;0.80;1.00;;;;;;5144562;27;20235;-85
2022/03/03 07:53:56;;;;;;;46.40;19.30;;;0.80;1.00;;;;;;5127605;27;20194;-86
2022/03/03 07:56:37;;;;;;;57.57;30.27;;;0.80;1.00;;;;;;5134991;27;20584;-88
2022/03/03 07:59:09;;;;;;;112.77;68.57;;;0.90;1.00;;;;;;5135482;27;20203;-89
2022/03/03 08:01:37;;;;;;;38.90;13.70;;;1.00;1.00;;;;;;5141890;27;20183;-85
2022/03/03 08:04:04;;;;;;;42.73;14.53;;;1.00;1.00;;;;;;5130992;27;20202;-86
2022/03/03 08:06:38;;;;;;;36.43;14.50;;;1.10;1.00;;;;;;5141286;27;20235;-87
2022/03/03 08:09:05;;;;;;;37.47;14.57;;;1.10;1.00;;;;;;5123795;28;20163;-86
2022/03/03 08:11:35;;;;;;;37.33;16.00;;;1.20;1.00;;;;;;5126606;28;20194;-87
2022/03/03 08:14:03;;;;;;;35.23;14.47;;;1.20;1.00;;;;;;5133327;27;20213;-85
2022/03/03 08:16:30;;;;;;;26.40;10.37;;;1.30;1.00;;;;;;5121944;28;20594;-87
2022/03/03 08:18:57;;;;;;;33.10;12.10;;;1.40;1.00;;;;;;5126368;27;20240;-87
2022/03/03 08:21:25;;;;;;;44.97;22.73;;;1.50;1.00;;;;;;5140365;27;20185;-87
2022/03/03 08:23:53;;;;;;;104.57;93.10;;;1.50;1.00;;;;;;5131881;27;20197;-86
2022/03/03 08:26:25;;;;;;;41.00;32.53;;;1.60;1.00;;;;;;5132225;27;20182;-86
2022/03/03 08:28:53;;;;;;;47.00;30.17;;;1.70;1.00;;;;;;5137916;27;20625;-85
2022/03/03 08:31:28;;;;;;;42.73;15.50;;;1.80;1.00;;;;;;5132259;27;20214;-87
2022/03/03 08:34:05;;;;;;;31.13;14.43;;;1.70;1.00;;;;;;5122354;27;20197;-85
2022/03/03 08:36:45;;;;;;;44.20;18.67;;;1.80;1.00;;;;;;5130247;27;20310;-85
2022/03/03 08:39:14;;;;;;;36.20;16.83;;;1.90;1.00;;;;;;5118226;27;20194;-85
2022/03/03 08:41:43;;;;;;;32.23;15.90;;;2.00;1.00;;;;;;5137495;27;20171;-85
2022/03/03 08:44:17;;;;;;;29.17;16.73;;;2.00;1.00;;;;;;5123259;27;20251;-87
2022/03/03 08:46:45;;;;;;;39.77;21.30;;;2.10;1.00;;;;;;5117736;28;20473;-86
2022/03/03 08:49:14;;;;;;;35.20;18.03;;;2.10;99.90;;;;;;5121789;28;20715;-86
2022/03/03 08:51:42;;;;;;;28.50;12.33;;;2.20;99.90;;;;;;5129711;27;20227;-85
2022/03/03 08:54:11;;;;;;;39.67;23.87;;;2.30;99.90;;;;;;5142301;27;20201;-85
2022/03/03 08:56:37;;;;;;;61.83;55.80;;;2.30;99.90;;;;;;5129709;27;20243;-87
2022/03/03 08:59:04;;;;;;;109.57;99.33;;;2.50;99.90;;;;;;5128572;27;20196;-86
2022/03/03 09:01:33;;;;;;;30.93;17.03;;;2.60;99.90;;;;;;5123588;27;20190;-86
2022/03/03 09:04:01;;;;;;;24.90;10.43;;;2.80;99.90;;;;;;5124549;27;20186;-86
2022/03/03 09:06:28;;;;;;;73.67;66.53;;;2.90;99.90;;;;;;5120944;27;20213;-85
2022/03/03 09:08:55;;;;;;;82.43;74.87;;;3.00;99.90;;;;;;5125631;28;20183;-84
2022/03/03 09:11:25;;;;;;;25.63;12.27;;;3.00;44.40;;;;;;5129239;27;20182;-88
2022/03/03 09:13:52;;;;;;;30.83;9.20;;;3.10;1.00;;;;;;5143241;27;20224;-86
2022/03/03 09:16:22;;;;;;;25.93;8.93;;;3.20;1.00;;;;;;5143256;27;20258;-88
2022/03/03 09:19:08;;;;;;;18.07;8.57;;;3.30;1.00;;;;;;5136353;27;20196;-90
2022/03/03 09:21:37;;;;;;;25.47;11.03;;;3.40;1.00;;;;;;5141378;27;20267;-86
2022/03/03 09:24:05;;;;;;;21.10;10.17;;;3.50;1.00;;;;;;5138108;27;20195;-85
2022/03/03 09:26:32;;;;;;;135.00;120.43;;;3.60;1.00;;;;;;5126308;27;20652;-86
2022/03/03 09:28:59;;;;;;;192.67;166.13;;;3.70;1.00;;;;;;5121215;28;20198;-85
2022/03/03 09:31:26;;;;;;;132.97;115.63;;;3.80;1.00;;;;;;5124018;27;20186;-87
2022/03/03 09:33:56;;;;;;;90.97;38.37;;;3.80;1.00;;;;;;5130437;27;20244;-85
2022/03/03 09:36:25;;;;;;;28.77;13.20;;;3.80;1.00;;;;;;5139237;27;20276;-86
2022/03/03 09:38:52;;;;;;;20.57;10.63;;;3.80;1.00;;;;;;5140649;27;20229;-87
2022/03/03 09:41:19;;;;;;;21.97;9.77;;;3.90;99.90;;;;;;5139467;27;20207;-86
2022/03/03 09:43:46;;;;;;;23.87;10.47;;;3.90;99.90;;;;;;5136487;27;20228;-86
2022/03/03 09:46:21;;;;;;;23.77;9.87;;;3.90;99.90;;;;;;5137660;27;20192;-87
2022/03/03 09:48:48;;;;;;;21.70;9.17;;;3.90;99.90;;;;;;5138579;27;20501;-87
2022/03/03 09:51:15;;;;;;;23.80;9.67;;;3.90;99.90;;;;;;5149045;27;20685;-86
2022/03/03 09:53:51;;;;;;;20.33;9.83;;;3.90;99.90;;;;;;5131738;27;20236;-89
2022/03/03 09:56:18;;;;;;;19.00;8.80;;;4.00;99.90;;;;;;5126574;27;20200;-86
2022/03/03 09:58:52;;;;;;;45.63;41.47;;;4.00;99.90;;;;;;5121546;27;20198;-89
2022/03/03 10:01:19;;;;;;;18.80;8.40;;;4.10;99.90;;;;;;5128804;27;20238;-88
2022/03/03 10:03:47;;;;;;;19.27;10.17;;;4.10;99.90;;;;;;5122630;27;20194;-87
2022/03/03 10:06:16;;;;;;;30.07;13.83;;;4.20;99.90;;;;;;5129098;27;20540;-91
2022/03/03 10:08:51;;;;;;;21.33;9.63;;;4.30;99.90;;;;;;5123849;27;20306;-86
2022/03/03 10:11:18;;;;;;;27.77;20.43;;;4.40;99.90;;;;;;5130408;27;20185;-85
2022/03/03 10:13:47;;;;;;;24.43;19.30;;;4.50;99.90;;;;;;5127693;27;20252;-87
2022/03/03 10:16:23;;;;;;;27.90;24.03;;;4.60;99.90;;;;;;5120614;27;20194;-85
2022/03/03 10:19:03;;;;;;;19.23;13.33;;;4.70;99.90;;;;;;5131139;27;20268;-89
2022/03/03 10:21:30;;;;;;;18.63;8.87;;;4.90;99.90;;;;;;5122240;27;20223;-86
2022/03/03 10:23:59;;;;;;;41.20;37.10;;;5.00;64.00;;;;;;5118768;27;20195;-86
2022/03/03 10:26:35;;;;;;;20.13;12.50;;;5.10;19.10;;;;;;5124659;27;20700;-86
2022/03/03 10:29:04;;;;;;;25.17;8.53;;;5.30;1.00;;;;;;5116976;27;20220;-84
2022/03/03 10:31:46;;;;;;;22.13;9.73;;;5.30;1.00;;;;;;5125453;27;20240;-87
2022/03/03 10:34:18;;;;;;;62.60;56.63;;;5.40;1.00;;;;;;5112321;28;20206;-85
2022/03/03 10:36:55;;;;;;;17.07;7.97;;;5.60;1.00;;;;;;5123672;27;20623;-87
2022/03/03 10:39:23;;;;;;;21.07;9.07;;;5.60;1.00;;;;;;5122034;27;20185;-86
2022/03/03 10:41:55;;;;;;;18.40;8.50;;;5.70;1.00;;;;;;5118989;28;20541;-85
2022/03/03 10:44:29;;;;;;;18.60;9.23;;;5.80;1.00;;;;;;5131433;28;20178;-90
2022/03/03 10:47:07;;;;;;;21.27;9.53;;;6.00;1.00;;;;;;5125226;28;20190;-89
2022/03/03 10:49:39;;;;;;;23.10;18.73;;;6.00;1.00;;;;;;5117075;28;20214;-85
2022/03/03 10:52:19;;;;;;;21.77;11.80;;;6.10;1.00;;;;;;5137261;28;20182;-85
2022/03/03 10:54:58;;;;;;;16.57;8.73;;;6.20;1.00;;;;;;5137944;28;20194;-87
2022/03/03 10:57:38;;;;;;;15.63;8.57;;;6.40;1.00;;;;;;5141362;28;20210;-86
2022/03/03 11:00:10;;;;;;;16.90;8.53;;;6.40;1.00;;;;;;5137294;28;20245;-85
2022/03/03 11:02:38;;;;;;;20.23;8.80;;;6.40;1.00;;;;;;5125936;28;20215;-86
2022/03/03 11:05:06;;;;;;;21.20;9.27;;;6.60;1.00;;;;;;5130844;28;20240;-86
2022/03/03 11:07:38;;;;;;;21.73;10.17;;;6.70;1.00;;;;;;5123054;28;20225;-85
2022/03/03 11:10:08;;;;;;;17.80;9.00;;;6.80;1.00;;;;;;5124940;28;20186;-85
2022/03/03 11:12:40;;;;;;;22.20;11.33;;;6.90;1.00;;;;;;5123871;28;20182;-89
2022/03/03 11:15:13;;;;;;;26.20;13.27;;;7.20;1.00;;;;;;5125276;28;20290;-86
2022/03/03 11:17:40;;;;;;;21.17;11.07;;;7.50;1.00;;;;;;5120435;28;20198;-84
2022/03/03 11:20:12;;;;;;;14.40;7.67;;;7.50;99.90;;;;;;5120168;28;20191;-89
2022/03/03 11:22:40;;;;;;;18.43;8.90;;;7.50;99.90;;;;;;5138948;27;20609;-85
2022/03/03 11:25:12;;;;;;;17.27;8.30;;;7.50;99.90;;;;;;5144257;27;20181;-86
2022/03/03 11:27:41;;;;;;;16.60;7.07;;;7.40;99.90;;;;;;5142201;27;20177;-88
2022/03/03 11:30:28;;;;;;;17.03;8.00;;;7.40;99.90;;;;;;5136993;27;20184;-87
2022/03/03 11:33:21;;;;;;;18.57;8.30;;;7.40;99.90;;;;;;5146992;27;20224;-91
2022/03/03 11:35:51;;;;;;;19.83;9.00;;;7.30;99.90;;;;;;5134366;27;20211;-85
2022/03/03 11:38:21;;;;;;;16.37;8.73;;;7.20;99.90;;;;;;5121892;27;20218;-91
2022/03/03 11:40:55;;;;;;;18.30;7.63;;;7.20;99.90;;;;;;5122356;27;20191;-86
2022/03/03 11:43:23;;;;;;;15.80;7.37;;;7.30;99.90;;;;;;5123615;27;20183;-86
2022/03/03 11:45:52;;;;;;;18.80;7.37;;;7.40;99.90;;;;;;5141672;27;20253;-87
2022/03/03 11:48:20;;;;;;;14.60;7.20;;;7.60;99.90;;;;;;5140227;27;20191;-85
2022/03/03 11:50:48;;;;;;;15.83;7.80;;;7.70;99.90;;;;;;5140500;27;20235;-86
2022/03/03 11:53:26;;;;;;;14.40;7.60;;;7.80;99.90;;;;;;5146104;27;20233;-87
2022/03/03 11:56:03;;;;;;;16.60;8.10;;;7.70;99.90;;;;;;5140031;27;20249;-87
2022/03/03 11:58:32;;;;;;;15.07;7.50;;;7.60;99.90;;;;;;5143114;27;20182;-87
2022/03/03 12:01:08;;;;;;;16.20;7.93;;;7.50;99.90;;;;;;5141765;27;20235;-88
2022/03/03 12:04:01;;;;;;;13.63;7.47;;;7.60;99.90;;;;;;5144392;27;20183;-87
2022/03/03 12:06:48;;;;;;;15.90;7.27;;;7.60;99.90;;;;;;5145584;27;20187;-88
2022/03/03 12:09:30;;;;;;;16.10;7.07;;;7.50;99.90;;;;;;5142340;27;20183;-88
2022/03/03 12:12:12;;;;;;;13.63;7.50;;;7.40;99.90;;;;;;5147504;27;20210;-91
2022/03/03 12:14:51;;;;;;;15.23;7.50;;;7.40;99.90;;;;;;5140520;27;20195;-88
2022/03/03 12:17:42;;;;;;;14.83;7.83;;;7.50;99.90;;;;;;5146375;27;20172;-88
2022/03/03 12:20:33;;;;;;;13.93;7.10;;;7.50;99.90;;;;;;5146223;27;20237;-91
2022/03/03 12:23:04;;;;;;;15.70;7.77;;;7.50;99.90;;;;;;5145322;27;20188;-90
2022/03/03 12:26:02;;;;;;;15.83;7.17;;;7.50;99.90;;;;;;5141542;27;20207;-88
2022/03/03 12:28:40;;;;;;;15.37;7.07;;;7.40;99.90;;;;;;5108432;28;20302;-88
2022/03/03 12:31:25;;;;;;;11.30;6.53;;;7.20;99.90;;;;;;5130896;27;20224;-88
2022/03/03 12:34:03;;;;;;;15.60;6.67;;;7.10;99.90;;;;;;5136122;27;20186;-91
2022/03/03 12:36:31;;;;;;;15.90;7.23;;;7.00;99.90;;;;;;5141531;27;20249;-89
2022/03/03 12:38:59;;;;;;;15.83;7.17;;;7.10;99.90;;;;;;5139243;27;20659;-88
2022/03/03 12:41:26;;;;;;;16.50;7.70;;;7.20;99.90;;;;;;5133927;27;20643;-90
2022/03/03 12:44:04;;;;;;;16.87;9.70;;;7.30;99.90;;;;;;5144540;27;20217;-88
2022/03/03 12:46:32;;;;;;;19.40;8.00;;;7.30;99.90;;;;;;5131335;27;20191;-88
2022/03/03 12:49:03;;;;;;;14.93;8.40;;;7.30;99.90;;;;;;5145262;27;20184;-91